createdAt,value
2017-01-26T00:00:28.437Z,0
2017-01-26T00:01:28.398Z,0
2017-01-26T00:02:28.393Z,0
2017-01-26T00:03:28.377Z,0
2017-01-26T00:04:28.362Z,0
2017-01-26T00:05:28.370Z,0
2017-01-26T00:06:28.327Z,0
2017-01-26T00:07:28.302Z,0
2017-01-26T00:08:28.283Z,0
2017-01-26T00:09:28.278Z,0
2017-01-26T00:10:28.257Z,0
2017-01-26T00:11:28.220Z,0
2017-01-26T00:12:28.213Z,0
2017-01-26T00:13:28.189Z,0
2017-01-26T00:14:28.188Z,0
2017-01-26T00:15:28.166Z,0
2017-01-26T00:16:28.143Z,0
2017-01-26T00:17:28.128Z,0
2017-01-26T00:18:28.096Z,0
2017-01-26T00:19:28.096Z,0
2017-01-26T00:20:28.088Z,0
2017-01-26T00:21:28.057Z,0
2017-01-26T00:22:28.423Z,0
2017-01-26T00:23:28.022Z,0
2017-01-26T00:24:28.012Z,0
2017-01-26T00:25:27.979Z,0
2017-01-26T00:26:27.959Z,0
2017-01-26T00:27:27.942Z,0
2017-01-26T00:28:27.945Z,0
2017-01-26T00:29:27.923Z,0
2017-01-26T00:30:27.890Z,0
2017-01-26T00:31:27.878Z,0
2017-01-26T00:32:27.864Z,0
2017-01-26T00:33:27.833Z,0
2017-01-26T00:34:27.826Z,0
2017-01-26T00:35:27.812Z,0
2017-01-26T00:36:27.786Z,0
2017-01-26T00:37:27.785Z,0
2017-01-26T00:38:27.758Z,0
2017-01-26T00:39:27.740Z,0
2017-01-26T00:40:27.717Z,0
2017-01-26T00:41:27.700Z,0
2017-01-26T00:42:27.715Z,0
2017-01-26T00:43:27.663Z,0
2017-01-26T00:44:27.634Z,0
2017-01-26T00:45:27.631Z,0
2017-01-26T00:46:27.629Z,0
2017-01-26T00:47:27.591Z,0
2017-01-26T00:48:27.575Z,0
2017-01-26T00:49:27.552Z,0
2017-01-26T00:50:27.547Z,0
2017-01-26T00:51:27.527Z,0
2017-01-26T00:52:27.513Z,0
2017-01-26T00:53:27.479Z,0
2017-01-26T00:54:27.479Z,0
2017-01-26T00:55:27.456Z,0
2017-01-26T00:56:27.432Z,0
2017-01-26T00:57:27.416Z,0
2017-01-26T00:58:27.413Z,0
2017-01-26T00:59:27.384Z,0
2017-01-26T01:00:27.403Z,0
2017-01-26T01:01:27.346Z,0
2017-01-26T01:02:27.332Z,0
2017-01-26T01:03:27.327Z,0
2017-01-26T01:04:27.290Z,0
2017-01-26T01:05:27.285Z,0
2017-01-26T01:06:27.264Z,0
2017-01-26T01:07:27.243Z,0
2017-01-26T01:08:27.220Z,0
2017-01-26T01:09:27.205Z,0
2017-01-26T01:10:27.208Z,0
2017-01-26T01:11:27.179Z,0
2017-01-26T01:12:27.151Z,0
2017-01-26T01:13:27.140Z,0
2017-01-26T01:14:27.118Z,0
2017-01-26T01:15:27.100Z,0
2017-01-26T01:16:27.087Z,0
2017-01-26T01:17:27.068Z,0
2017-01-26T01:18:27.050Z,0
2017-01-26T01:19:27.031Z,0
2017-01-26T01:20:27.019Z,0
2017-01-26T01:21:26.995Z,0
2017-01-26T01:22:26.987Z,0
2017-01-26T01:23:26.966Z,0
2017-01-26T01:24:26.936Z,0
2017-01-26T01:25:26.925Z,0
2017-01-26T01:26:26.914Z,0
2017-01-26T01:27:26.894Z,0
2017-01-26T01:28:26.871Z,0
2017-01-26T01:29:26.863Z,0
2017-01-26T01:30:26.825Z,0
2017-01-26T01:31:26.824Z,0
2017-01-26T01:32:26.809Z,0
2017-01-26T01:33:26.788Z,0
2017-01-26T01:34:26.763Z,0
2017-01-26T01:35:26.740Z,0
2017-01-26T01:36:26.734Z,0
2017-01-26T01:37:26.724Z,0
2017-01-26T01:38:26.689Z,0
2017-01-26T01:39:26.677Z,0
2017-01-26T01:40:26.646Z,0
2017-01-26T01:41:26.639Z,0
2017-01-26T01:42:26.630Z,0
2017-01-26T01:43:26.606Z,0
2017-01-26T01:44:26.573Z,0
2017-01-26T01:45:26.572Z,0
2017-01-26T01:46:26.552Z,0
2017-01-26T01:47:26.567Z,0
2017-01-26T01:48:26.518Z,0
2017-01-26T01:49:26.495Z,0
2017-01-26T01:50:26.473Z,0
2017-01-26T01:51:26.465Z,0
2017-01-26T01:52:26.430Z,0
2017-01-26T01:53:26.432Z,0
2017-01-26T01:54:26.402Z,0
2017-01-26T01:55:26.384Z,0
2017-01-26T01:56:26.370Z,0
2017-01-26T01:57:26.374Z,0
2017-01-26T01:58:26.332Z,0
2017-01-26T01:59:26.325Z,0
2017-01-26T02:00:26.307Z,0
2017-01-26T02:01:26.280Z,0
2017-01-26T02:02:26.263Z,0
2017-01-26T02:03:26.272Z,0
2017-01-26T02:04:26.228Z,0
2017-01-26T02:05:26.205Z,0
2017-01-26T02:06:26.185Z,0
2017-01-26T02:07:26.165Z,0
2017-01-26T02:08:26.165Z,0
2017-01-26T02:09:26.144Z,0
2017-01-26T02:10:26.116Z,0
2017-01-26T02:11:26.092Z,0
2017-01-26T02:12:26.094Z,0
2017-01-26T02:13:26.065Z,0
2017-01-26T02:14:26.034Z,0
2017-01-26T02:15:26.051Z,0
2017-01-26T02:16:26.011Z,0
2017-01-26T02:17:25.985Z,0
2017-01-26T02:18:25.982Z,0
2017-01-26T02:19:25.952Z,0
2017-01-26T02:20:25.924Z,0
2017-01-26T02:21:25.916Z,0
2017-01-26T02:22:25.901Z,0
2017-01-26T02:23:25.881Z,0
2017-01-26T02:24:25.867Z,0
2017-01-26T02:25:25.847Z,0
2017-01-26T02:26:25.823Z,0
2017-01-26T02:27:25.802Z,0
2017-01-26T02:28:25.819Z,0
2017-01-26T02:29:25.770Z,0
2017-01-26T02:30:25.759Z,0
2017-01-26T02:31:25.739Z,0
2017-01-26T02:32:25.716Z,0
2017-01-26T02:33:25.710Z,0
2017-01-26T02:34:25.690Z,0
2017-01-26T02:35:25.670Z,0
2017-01-26T02:36:25.641Z,0
2017-01-26T02:37:25.631Z,0
2017-01-26T02:38:25.621Z,0
2017-01-26T02:39:25.596Z,0
2017-01-26T02:40:25.577Z,0
2017-01-26T02:41:25.543Z,0
2017-01-26T02:42:25.535Z,0
2017-01-26T02:43:25.524Z,0
2017-01-26T02:44:25.491Z,0
2017-01-26T02:45:25.482Z,0
2017-01-26T02:46:25.499Z,0
2017-01-26T02:47:25.444Z,0
2017-01-26T02:48:25.428Z,0
2017-01-26T02:49:25.415Z,0
2017-01-26T02:50:25.382Z,0
2017-01-26T02:51:25.377Z,0
2017-01-26T02:52:25.363Z,0
2017-01-26T02:53:25.338Z,0
2017-01-26T02:54:25.323Z,0
2017-01-26T02:55:25.292Z,0
2017-01-26T02:56:25.283Z,0
2017-01-26T02:57:25.262Z,0
2017-01-26T02:58:25.240Z,0
2017-01-26T02:59:25.232Z,0
2017-01-26T03:00:25.216Z,0
2017-01-26T03:01:25.200Z,0
2017-01-26T03:02:25.163Z,0
2017-01-26T03:03:25.152Z,0
2017-01-26T03:04:25.136Z,0
2017-01-26T03:05:25.115Z,0
2017-01-26T03:06:25.097Z,0
2017-01-26T03:07:25.080Z,0
2017-01-26T03:08:25.061Z,0
2017-01-26T03:09:25.056Z,0
2017-01-26T03:10:25.030Z,0
2017-01-26T03:11:25.019Z,0
2017-01-26T03:12:25.042Z,0
2017-01-26T03:13:24.998Z,0
2017-01-26T03:14:24.952Z,0
2017-01-26T03:15:24.947Z,0
2017-01-26T03:16:24.916Z,0
2017-01-26T03:17:24.900Z,0
2017-01-26T03:18:24.883Z,0
2017-01-26T03:19:24.870Z,0
2017-01-26T03:20:24.858Z,0
2017-01-26T03:21:24.830Z,0
2017-01-26T03:22:24.809Z,0
2017-01-26T03:23:24.792Z,0
2017-01-26T03:24:24.781Z,0
2017-01-26T03:25:24.768Z,0
2017-01-26T03:26:24.778Z,0
2017-01-26T03:27:24.734Z,0
2017-01-26T03:28:24.712Z,0
2017-01-26T03:29:24.693Z,0
2017-01-26T03:30:24.677Z,0
2017-01-26T03:31:24.691Z,0
2017-01-26T03:32:24.623Z,0
2017-01-26T03:33:24.620Z,0
2017-01-26T03:34:24.589Z,0
2017-01-26T03:35:24.591Z,0
2017-01-26T03:36:24.565Z,0
2017-01-26T03:37:24.543Z,0
2017-01-26T03:38:24.531Z,0
2017-01-26T03:39:24.511Z,0
2017-01-26T03:40:24.484Z,0
2017-01-26T03:41:24.459Z,0
2017-01-26T03:42:24.458Z,0
2017-01-26T03:43:24.434Z,0
2017-01-26T03:44:24.444Z,0
2017-01-26T03:45:24.400Z,0
2017-01-26T03:46:24.372Z,0
2017-01-26T03:47:24.364Z,0
2017-01-26T03:48:24.358Z,0
2017-01-26T03:49:24.333Z,0
2017-01-26T03:50:24.307Z,0
2017-01-26T03:51:24.290Z,0
2017-01-26T03:52:24.305Z,0
2017-01-26T03:53:24.271Z,0
2017-01-26T03:54:24.242Z,0
2017-01-26T03:55:24.615Z,0
2017-01-26T03:56:24.204Z,0
2017-01-26T03:57:24.183Z,0
2017-01-26T03:58:24.183Z,0
2017-01-26T03:59:24.145Z,0
2017-01-26T04:00:24.125Z,0
2017-01-26T04:01:24.114Z,0
2017-01-26T04:02:24.104Z,0
2017-01-26T04:03:24.079Z,0
2017-01-26T04:04:24.066Z,0
2017-01-26T04:05:24.048Z,0
2017-01-26T04:06:24.031Z,0
2017-01-26T04:07:24.035Z,0
2017-01-26T04:08:24.000Z,0
2017-01-26T04:09:23.971Z,0
2017-01-26T04:10:23.950Z,0
2017-01-26T04:11:23.935Z,0
2017-01-26T04:12:23.903Z,0
2017-01-26T04:13:23.902Z,0
2017-01-26T04:14:23.880Z,0
2017-01-26T04:15:23.869Z,0
2017-01-26T04:16:23.850Z,0
2017-01-26T04:17:23.822Z,0
2017-01-26T04:18:23.807Z,0
2017-01-26T04:19:23.800Z,0
2017-01-26T04:20:23.782Z,0
2017-01-26T04:21:23.751Z,0
2017-01-26T04:22:23.731Z,0
2017-01-26T04:23:23.725Z,0
2017-01-26T04:24:23.696Z,0
2017-01-26T04:25:23.690Z,0
2017-01-26T04:26:23.669Z,0
2017-01-26T04:27:23.647Z,0
2017-01-26T04:28:23.640Z,0
2017-01-26T04:29:23.619Z,0
2017-01-26T04:30:23.579Z,0
2017-01-26T04:31:23.582Z,0
2017-01-26T04:32:23.557Z,0
2017-01-26T04:33:23.532Z,0
2017-01-26T04:34:23.515Z,0
2017-01-26T04:35:23.510Z,0
2017-01-26T04:36:23.481Z,0
2017-01-26T04:37:23.476Z,0
2017-01-26T04:38:23.454Z,0
2017-01-26T04:39:23.441Z,0
2017-01-26T04:40:23.417Z,0
2017-01-26T04:41:23.401Z,0
2017-01-26T04:42:23.392Z,0
2017-01-26T04:43:23.749Z,0
2017-01-26T04:44:23.355Z,0
2017-01-26T04:45:23.317Z,0
2017-01-26T04:46:23.314Z,0
2017-01-26T04:47:23.296Z,0
2017-01-26T04:48:23.269Z,0
2017-01-26T04:49:23.258Z,0
2017-01-26T04:50:23.228Z,0
2017-01-26T04:51:23.223Z,0
2017-01-26T04:52:23.192Z,0
2017-01-26T04:53:23.176Z,0
2017-01-26T04:54:23.166Z,0
2017-01-26T04:55:23.143Z,0
2017-01-26T04:56:23.125Z,0
2017-01-26T04:57:23.102Z,0
2017-01-26T04:58:23.089Z,0
2017-01-26T04:59:23.072Z,0
2017-01-26T05:00:23.049Z,0
2017-01-26T05:01:23.029Z,0
2017-01-26T05:02:23.016Z,0
2017-01-26T05:03:23.000Z,0
2017-01-26T05:04:22.982Z,0
2017-01-26T05:05:22.971Z,0
2017-01-26T05:06:22.948Z,0
2017-01-26T05:07:22.931Z,0
2017-01-26T05:08:22.896Z,0
2017-01-26T05:09:22.877Z,0
2017-01-26T05:10:22.877Z,0
2017-01-26T05:11:22.843Z,0
2017-01-26T05:12:22.826Z,0
2017-01-26T05:13:22.818Z,0
2017-01-26T05:14:22.796Z,0
2017-01-26T05:15:22.774Z,0
2017-01-26T05:16:22.770Z,0
2017-01-26T05:17:22.743Z,0
2017-01-26T05:18:22.720Z,0
2017-01-26T05:19:22.708Z,0
2017-01-26T05:20:22.687Z,0
2017-01-26T05:21:22.678Z,0
2017-01-26T05:22:22.644Z,0
2017-01-26T05:23:22.639Z,0
2017-01-26T05:24:22.620Z,0
2017-01-26T05:25:22.593Z,0
2017-01-26T05:26:22.606Z,0
2017-01-26T05:27:22.565Z,0
2017-01-26T05:28:22.549Z,0
2017-01-26T05:29:22.520Z,0
2017-01-26T05:30:22.526Z,0
2017-01-26T05:31:22.490Z,0
2017-01-26T05:32:22.495Z,0
2017-01-26T05:33:22.450Z,0
2017-01-26T05:34:22.428Z,0
2017-01-26T05:35:22.428Z,0
2017-01-26T05:36:22.406Z,0
2017-01-26T05:37:22.383Z,0
2017-01-26T05:38:22.366Z,0
2017-01-26T05:39:22.367Z,0
2017-01-26T05:40:22.326Z,0
2017-01-26T05:41:22.301Z,0
2017-01-26T05:42:22.288Z,0
2017-01-26T05:43:22.280Z,0
2017-01-26T05:44:22.260Z,0
2017-01-26T05:45:22.256Z,0
2017-01-26T05:46:22.222Z,0
2017-01-26T05:47:22.205Z,0
2017-01-26T05:48:22.182Z,0
2017-01-26T05:49:22.154Z,0
2017-01-26T05:50:22.142Z,0
2017-01-26T05:51:22.128Z,0
2017-01-26T05:52:22.115Z,0
2017-01-26T05:53:22.087Z,0
2017-01-26T05:54:22.071Z,0
2017-01-26T05:55:22.071Z,0
2017-01-26T05:56:22.031Z,0
2017-01-26T05:57:22.011Z,0
2017-01-26T05:58:22.004Z,0
2017-01-26T05:59:21.980Z,0
2017-01-26T06:00:21.973Z,0
2017-01-26T06:01:21.963Z,0
2017-01-26T06:02:21.928Z,0
2017-01-26T06:03:21.920Z,0
2017-01-26T06:04:21.884Z,0
2017-01-26T06:05:21.876Z,0
2017-01-26T06:06:21.862Z,0
2017-01-26T06:07:21.836Z,0
2017-01-26T06:08:21.818Z,0
2017-01-26T06:09:21.793Z,0
2017-01-26T06:10:21.799Z,0
2017-01-26T06:11:21.784Z,4
2017-01-26T06:12:21.753Z,0
2017-01-26T06:13:21.731Z,0
2017-01-26T06:14:21.721Z,4
2017-01-26T06:15:21.699Z,4
2017-01-26T06:16:21.673Z,4
2017-01-26T06:17:21.655Z,4
2017-01-26T06:18:22.029Z,8
2017-01-26T06:19:21.640Z,8
2017-01-26T06:20:21.598Z,4
2017-01-26T06:21:21.636Z,8
2017-01-26T06:22:21.570Z,12
2017-01-26T06:23:21.543Z,12
2017-01-26T06:24:21.537Z,16
2017-01-26T06:25:21.526Z,20
2017-01-26T06:26:21.499Z,24
2017-01-26T06:27:21.481Z,28
2017-01-26T06:28:21.447Z,32
2017-01-26T06:29:21.441Z,40
2017-01-26T06:30:21.424Z,48
2017-01-26T06:31:21.409Z,56
2017-01-26T06:32:21.397Z,68
2017-01-26T06:33:21.369Z,80
2017-01-26T06:34:21.355Z,92
2017-01-26T06:35:21.334Z,108
2017-01-26T06:36:21.324Z,128
2017-01-26T06:37:21.309Z,144
2017-01-26T06:38:21.265Z,168
2017-01-26T06:39:21.266Z,192
2017-01-26T06:40:21.247Z,220
2017-01-26T06:41:21.235Z,248
2017-01-26T06:42:21.215Z,284
2017-01-26T06:43:21.205Z,320
2017-01-26T06:44:21.178Z,356
2017-01-26T06:45:21.149Z,396
2017-01-26T06:46:21.158Z,440
2017-01-26T06:47:21.118Z,484
2017-01-26T06:48:21.100Z,536
2017-01-26T06:49:21.089Z,588
2017-01-26T06:50:21.070Z,644
2017-01-26T06:51:21.043Z,740
2017-01-26T06:52:21.032Z,852
2017-01-26T06:53:21.005Z,956
2017-01-26T06:54:20.983Z,1044
2017-01-26T06:55:20.964Z,1132
2017-01-26T06:56:20.948Z,1220
2017-01-26T06:57:20.938Z,1316
2017-01-26T06:58:20.934Z,1408
2017-01-26T06:59:20.907Z,1508
2017-01-26T07:00:20.889Z,1612
2017-01-26T07:01:20.876Z,1712
2017-01-26T07:02:20.859Z,1816
2017-01-26T07:03:20.831Z,1924
2017-01-26T07:04:20.818Z,2032
2017-01-26T07:05:20.793Z,2140
2017-01-26T07:06:20.790Z,2248
2017-01-26T07:07:20.756Z,2356
2017-01-26T07:08:20.757Z,2460
2017-01-26T07:09:20.725Z,2564
2017-01-26T07:10:20.704Z,2672
2017-01-26T07:11:20.689Z,2776
2017-01-26T07:12:20.713Z,2884
2017-01-26T07:13:21.049Z,3008
2017-01-26T07:14:20.645Z,3132
2017-01-26T07:15:20.635Z,3244
2017-01-26T07:16:20.608Z,3348
2017-01-26T07:17:20.596Z,3456
2017-01-26T07:18:20.566Z,3564
2017-01-26T07:19:20.547Z,3672
2017-01-26T07:20:20.535Z,3788
2017-01-26T07:21:20.536Z,3888
2017-01-26T07:22:20.497Z,3988
2017-01-26T07:23:20.485Z,4096
2017-01-26T07:24:20.478Z,4208
2017-01-26T07:25:20.461Z,4312
2017-01-26T07:26:20.437Z,4424
2017-01-26T07:27:20.426Z,4528
2017-01-26T07:28:20.403Z,4636
2017-01-26T07:29:20.389Z,4748
2017-01-26T07:30:20.376Z,4860
2017-01-26T07:31:20.363Z,4976
2017-01-26T07:32:20.331Z,5104
2017-01-26T07:33:20.318Z,5244
2017-01-26T07:34:20.312Z,5492
2017-01-26T07:35:20.278Z,5888
2017-01-26T07:36:20.287Z,6144
2017-01-26T07:37:20.270Z,6272
2017-01-26T07:38:20.245Z,6352
2017-01-26T07:39:20.219Z,6556
2017-01-26T07:40:20.215Z,6668
2017-01-26T07:41:20.200Z,6544
2017-01-26T07:42:20.160Z,6368
2017-01-26T07:43:20.166Z,6600
2017-01-26T07:44:20.133Z,7024
2017-01-26T07:45:20.128Z,7364
2017-01-26T07:46:20.105Z,7460
2017-01-26T07:47:20.098Z,7444
2017-01-26T07:48:20.073Z,7676
2017-01-26T07:49:20.440Z,7900
2017-01-26T07:50:20.041Z,8172
2017-01-26T07:51:20.031Z,8260
2017-01-26T07:52:20.034Z,8176
2017-01-26T07:53:19.981Z,8204
2017-01-26T07:54:19.969Z,8240
2017-01-26T07:55:19.961Z,8396
2017-01-26T07:56:19.959Z,8684
2017-01-26T07:57:19.917Z,8852
2017-01-26T07:58:19.894Z,8876
2017-01-26T07:59:19.883Z,9044
2017-01-26T08:00:19.875Z,9128
2017-01-26T08:01:19.872Z,9020
2017-01-26T08:02:19.832Z,9616
2017-01-26T08:03:19.822Z,9672
2017-01-26T08:04:19.815Z,9660
2017-01-26T08:05:19.793Z,9856
2017-01-26T08:06:19.783Z,9832
2017-01-26T08:07:19.755Z,10244
2017-01-26T08:08:19.742Z,11052
2017-01-26T08:09:19.731Z,11648
2017-01-26T08:10:19.716Z,12180
2017-01-26T08:11:19.698Z,12736
2017-01-26T08:12:19.682Z,12396
2017-01-26T08:13:19.670Z,12848
2017-01-26T08:14:19.659Z,13856
2017-01-26T08:15:19.649Z,14144
2017-01-26T08:16:19.623Z,13920
2017-01-26T08:17:19.605Z,14432
2017-01-26T08:18:19.601Z,14656
2017-01-26T08:19:19.583Z,13920
2017-01-26T08:20:19.580Z,13632
2017-01-26T08:21:19.564Z,13796
2017-01-26T08:22:19.541Z,14592
2017-01-26T08:23:19.531Z,15552
2017-01-26T08:24:19.518Z,15680
2017-01-26T08:25:19.505Z,15232
2017-01-26T08:26:19.483Z,16832
2017-01-26T08:27:19.478Z,17856
2017-01-26T08:28:19.465Z,16672
2017-01-26T08:29:19.441Z,15776
2017-01-26T08:30:19.433Z,15648
2017-01-26T08:31:19.443Z,15360
2017-01-26T08:32:19.425Z,16128
2017-01-26T08:33:19.399Z,17440
2017-01-26T08:34:19.392Z,18784
2017-01-26T08:35:19.395Z,19840
2017-01-26T08:36:19.365Z,20640
2017-01-26T08:37:19.356Z,20480
2017-01-26T08:38:19.347Z,20544
2017-01-26T08:39:19.327Z,20896
2017-01-26T08:40:19.316Z,20064
2017-01-26T08:41:19.309Z,21056
2017-01-26T08:42:19.317Z,21952
2017-01-26T08:43:19.265Z,22208
2017-01-26T08:44:19.265Z,23744
2017-01-26T08:45:19.257Z,23488
2017-01-26T08:46:19.248Z,23680
2017-01-26T08:47:19.242Z,23968
2017-01-26T08:48:19.224Z,24480
2017-01-26T08:49:19.219Z,25120
2017-01-26T08:50:19.203Z,26720
2017-01-26T08:51:19.194Z,28544
2017-01-26T08:52:19.176Z,30496
2017-01-26T08:53:19.160Z,30816
2017-01-26T08:54:19.143Z,29216
2017-01-26T08:55:19.140Z,25728
2017-01-26T08:56:19.130Z,22688
2017-01-26T08:57:19.119Z,22912
2017-01-26T08:58:19.095Z,25728
2017-01-26T08:59:19.091Z,25472
2017-01-26T09:00:19.070Z,21888
2017-01-26T09:01:19.094Z,19520
2017-01-26T09:02:19.055Z,19392
2017-01-26T09:03:19.036Z,19520
2017-01-26T09:04:19.027Z,19616
2017-01-26T09:05:19.016Z,22176
2017-01-26T09:06:19.022Z,27168
2017-01-26T09:07:19.024Z,34464
2017-01-26T09:08:18.972Z,34688
2017-01-26T09:09:18.949Z,30400
2017-01-26T09:10:18.947Z,29504
2017-01-26T09:11:19.314Z,28352
2017-01-26T09:12:18.918Z,30144
2017-01-26T09:13:18.905Z,30880
2017-01-26T09:14:18.895Z,30400
2017-01-26T09:15:18.878Z,31200
2017-01-26T09:16:18.872Z,31072
2017-01-26T09:17:18.857Z,31424
2017-01-26T09:18:18.839Z,32992
2017-01-26T09:19:18.821Z,34240
2017-01-26T09:20:18.814Z,34528
2017-01-26T09:21:18.796Z,34560
2017-01-26T09:22:18.797Z,33920
2017-01-26T09:23:18.784Z,36800
2017-01-26T09:24:18.758Z,40512
2017-01-26T09:25:18.774Z,42144
2017-01-26T09:26:18.735Z,41888
2017-01-26T09:27:18.709Z,42496
2017-01-26T09:28:18.692Z,41280
2017-01-26T09:29:18.684Z,36064
2017-01-26T09:30:18.678Z,30976
2017-01-26T09:31:18.656Z,27488
2017-01-26T09:32:18.635Z,27136
2017-01-26T09:33:18.621Z,29760
2017-01-26T09:34:18.608Z,31776
2017-01-26T09:35:18.612Z,34720
2017-01-26T09:36:18.788Z,36704
2017-01-26T09:37:18.777Z,36928
2017-01-26T09:38:18.541Z,36672
2017-01-26T09:39:18.539Z,34368
2017-01-26T09:40:18.517Z,34976
2017-01-26T09:41:18.506Z,38944
2017-01-26T09:42:18.498Z,42944
2017-01-26T09:43:18.499Z,43584
2017-01-26T09:44:18.464Z,41120
2017-01-26T09:45:18.450Z,39392
2017-01-26T09:46:18.440Z,38240
2017-01-26T09:47:18.437Z,36512
2017-01-26T09:48:18.416Z,37024
2017-01-26T09:49:18.408Z,38752
2017-01-26T09:50:18.397Z,38528
2017-01-26T09:51:18.378Z,38592
2017-01-26T09:52:18.377Z,41280
2017-01-26T09:53:18.359Z,42016
2017-01-26T09:54:18.337Z,40608
2017-01-26T09:55:18.317Z,36320
2017-01-26T09:56:18.321Z,38592
2017-01-26T09:57:18.297Z,41920
2017-01-26T09:58:18.298Z,41312
2017-01-26T09:59:18.279Z,41536
2017-01-26T10:00:18.269Z,42080
2017-01-26T10:01:18.261Z,43328
2017-01-26T10:02:18.248Z,44288
2017-01-26T10:03:18.237Z,44288
2017-01-26T10:04:18.209Z,45024
2017-01-26T10:05:18.210Z,47328
2017-01-26T10:06:18.202Z,47616
2017-01-26T10:07:18.378Z,44000
2017-01-26T10:08:18.361Z,41472
2017-01-26T10:09:18.152Z,40992
2017-01-26T10:10:18.151Z,41984
2017-01-26T10:11:18.134Z,44160
2017-01-26T10:12:18.112Z,46048
2017-01-26T10:13:18.098Z,46400
2017-01-26T10:14:18.087Z,43008
2017-01-26T10:15:18.090Z,41792
2017-01-26T10:16:18.065Z,39936
2017-01-26T10:17:18.047Z,34624
2017-01-26T10:18:18.042Z,32640
2017-01-26T10:19:18.022Z,33152
2017-01-26T10:20:18.013Z,33408
2017-01-26T10:21:17.996Z,33024
2017-01-26T10:22:17.999Z,33536
2017-01-26T10:23:18.000Z,34080
2017-01-26T10:24:17.975Z,33056
2017-01-26T10:25:17.957Z,34112
2017-01-26T10:26:17.948Z,36672
2017-01-26T10:27:17.928Z,37216
2017-01-26T10:28:17.934Z,40992
2017-01-26T10:29:17.916Z,41440
2017-01-26T10:30:18.284Z,40256
2017-01-26T10:31:17.894Z,40320
2017-01-26T10:32:17.875Z,40544
2017-01-26T10:33:17.869Z,41280
2017-01-26T10:34:17.864Z,41440
2017-01-26T10:35:17.853Z,41728
2017-01-26T10:36:17.829Z,42560
2017-01-26T10:37:17.839Z,43904
2017-01-26T10:38:17.816Z,44672
2017-01-26T10:39:18.007Z,42432
2017-01-26T10:40:17.784Z,43296
2017-01-26T10:41:17.779Z,45920
2017-01-26T10:42:17.781Z,45984
2017-01-26T10:43:17.768Z,44704
2017-01-26T10:44:17.748Z,42304
2017-01-26T10:45:17.748Z,41824
2017-01-26T10:46:17.730Z,39744
2017-01-26T10:47:17.713Z,37632
2017-01-26T10:48:17.711Z,39200
2017-01-26T10:49:17.701Z,39200
2017-01-26T10:50:17.698Z,35584
2017-01-26T10:51:17.666Z,35040
2017-01-26T10:52:17.679Z,39712
2017-01-26T10:53:17.680Z,43264
2017-01-26T10:54:17.646Z,39392
2017-01-26T10:55:17.643Z,38720
2017-01-26T10:56:17.635Z,41312
2017-01-26T10:57:17.623Z,39840
2017-01-26T10:58:17.608Z,37824
2017-01-26T10:59:17.607Z,36992
2017-01-26T11:00:17.987Z,38400
2017-01-26T11:01:17.576Z,39968
2017-01-26T11:02:17.578Z,39968
2017-01-26T11:03:17.559Z,40064
2017-01-26T11:04:17.556Z,40832
2017-01-26T11:05:17.542Z,40768
2017-01-26T11:06:17.532Z,40160
2017-01-26T11:07:17.524Z,42784
2017-01-26T11:08:17.509Z,43552
2017-01-26T11:09:17.508Z,41568
2017-01-26T11:10:17.498Z,40896
2017-01-26T11:11:17.677Z,41792
2017-01-26T11:12:17.460Z,39808
2017-01-26T11:13:17.446Z,41632
2017-01-26T11:14:17.433Z,46304
2017-01-26T11:15:17.424Z,44960
2017-01-26T11:16:17.418Z,41056
2017-01-26T11:17:17.401Z,39584
2017-01-26T11:18:17.399Z,38592
2017-01-26T11:19:17.386Z,39392
2017-01-26T11:20:17.399Z,39872
2017-01-26T11:21:17.359Z,38944
2017-01-26T11:22:17.338Z,40928
2017-01-26T11:23:17.333Z,41472
2017-01-26T11:24:17.305Z,40096
2017-01-26T11:25:17.312Z,40864
2017-01-26T11:26:17.298Z,40992
2017-01-26T11:27:17.272Z,39968
2017-01-26T11:28:17.279Z,41184
2017-01-26T11:29:17.263Z,40736
2017-01-26T11:30:17.253Z,40096
2017-01-26T11:31:17.238Z,40384
2017-01-26T11:32:17.228Z,44512
2017-01-26T11:33:17.210Z,38976
2017-01-26T11:34:17.188Z,23648
2017-01-26T11:35:17.197Z,18176
2017-01-26T11:36:17.180Z,19456
2017-01-26T11:37:17.161Z,29184
2017-01-26T11:38:52.598Z,55296
2017-01-26T11:39:29.746Z,56864
2017-01-26T11:40:29.722Z,51072
2017-01-26T11:41:29.713Z,49056
2017-01-26T11:42:29.701Z,48256
2017-01-26T11:43:29.704Z,41024
2017-01-26T11:44:29.694Z,37088
2017-01-26T11:45:29.695Z,42016
2017-01-26T11:46:29.669Z,42816
2017-01-26T11:47:29.663Z,40384
2017-01-26T11:48:29.649Z,40256
2017-01-26T11:49:29.634Z,40384
2017-01-26T11:50:29.632Z,41600
2017-01-26T11:51:29.624Z,44800
2017-01-26T11:52:29.625Z,46464
2017-01-26T11:53:29.600Z,45760
2017-01-26T11:54:29.596Z,44672
2017-01-26T11:55:29.598Z,44000
2017-01-26T11:56:29.572Z,45312
2017-01-26T11:57:30.265Z,45504
2017-01-26T11:58:29.550Z,44544
2017-01-26T11:59:29.546Z,43360
2017-01-26T12:00:29.535Z,43296
2017-01-26T12:01:29.525Z,43392
2017-01-26T12:02:29.516Z,42496
2017-01-26T12:03:29.507Z,43648
2017-01-26T12:04:29.498Z,48928
2017-01-26T12:05:29.491Z,52608
2017-01-26T12:06:29.470Z,50304
2017-01-26T12:07:29.475Z,46560
2017-01-26T12:08:29.457Z,44736
2017-01-26T12:09:29.449Z,43296
2017-01-26T12:10:29.442Z,40224
2017-01-26T12:11:33.669Z,36768
2017-01-26T12:12:29.428Z,35680
2017-01-26T12:13:29.414Z,34976
2017-01-26T12:14:29.408Z,32896
2017-01-26T12:15:29.392Z,30560
2017-01-26T12:16:29.394Z,30752
2017-01-26T12:17:29.373Z,31520
2017-01-26T12:18:29.370Z,31552
2017-01-26T12:19:29.356Z,30720
2017-01-26T12:20:29.379Z,31264
2017-01-26T12:21:29.338Z,30912
2017-01-26T12:22:29.326Z,31040
2017-01-26T12:23:29.322Z,32704
2017-01-26T12:24:29.321Z,34688
2017-01-26T12:25:29.301Z,37952
2017-01-26T12:26:29.301Z,41120
2017-01-26T12:27:29.277Z,41216
2017-01-26T12:28:29.286Z,41856
2017-01-26T12:29:29.274Z,44544
2017-01-26T12:30:29.256Z,46496
2017-01-26T12:31:29.243Z,45568
2017-01-26T12:32:29.238Z,44160
2017-01-26T12:33:29.230Z,41888
2017-01-26T12:34:29.233Z,38112
2017-01-26T12:35:29.226Z,37312
2017-01-26T12:36:29.197Z,40352
2017-01-26T12:37:29.193Z,42336
2017-01-26T12:38:29.177Z,42912
2017-01-26T12:39:29.192Z,42336
2017-01-26T12:40:29.177Z,40416
2017-01-26T12:41:29.166Z,38048
2017-01-26T12:42:29.153Z,35552
2017-01-26T12:43:29.119Z,34176
2017-01-26T12:44:29.121Z,33632
2017-01-26T12:45:29.118Z,32128
2017-01-26T12:46:29.104Z,30080
2017-01-26T12:47:29.083Z,30048
2017-01-26T12:48:29.079Z,30080
2017-01-26T12:49:29.078Z,30208
2017-01-26T12:50:29.061Z,30112
2017-01-26T12:51:29.049Z,30976
2017-01-26T12:52:29.051Z,34208
2017-01-26T12:53:29.027Z,40192
2017-01-26T12:54:29.014Z,44704
2017-01-26T12:55:29.015Z,47136
2017-01-26T12:56:29.142Z,47072
2017-01-26T12:57:28.991Z,45088
2017-01-26T12:58:28.982Z,43584
2017-01-26T12:59:28.976Z,42816
2017-01-26T13:00:28.965Z,43968
2017-01-26T13:01:28.939Z,46400
2017-01-26T13:02:28.941Z,47424
2017-01-26T13:03:28.940Z,45088
2017-01-26T13:04:28.957Z,39904
2017-01-26T13:05:28.902Z,35008
2017-01-26T13:06:28.905Z,33248
2017-01-26T13:07:28.895Z,32640
2017-01-26T13:08:28.896Z,31104
2017-01-26T13:09:28.862Z,29056
2017-01-26T13:10:28.882Z,30144
2017-01-26T13:11:28.852Z,35712
2017-01-26T13:12:28.844Z,43200
2017-01-26T13:13:28.829Z,41120
2017-01-26T13:14:28.811Z,34208
2017-01-26T13:15:28.807Z,24800
2017-01-26T13:16:28.789Z,19584
2017-01-26T13:17:28.784Z,17056
2017-01-26T13:18:28.776Z,17696
2017-01-26T13:19:28.770Z,20832
2017-01-26T13:20:28.760Z,23936
2017-01-26T13:21:28.745Z,34976
2017-01-26T13:22:28.734Z,50688
2017-01-26T13:23:28.722Z,60128
2017-01-26T13:24:28.707Z,52288
2017-01-26T13:25:28.693Z,42464
2017-01-26T13:26:28.689Z,35264
2017-01-26T13:27:29.447Z,31904
2017-01-26T13:28:29.435Z,29920
2017-01-26T13:29:29.816Z,29184
2017-01-26T13:30:29.816Z,28704
2017-01-26T13:31:29.843Z,34432
2017-01-26T13:32:29.788Z,39104
2017-01-26T13:33:29.786Z,39680
2017-01-26T13:34:29.767Z,37024
2017-01-26T13:35:29.754Z,30144
2017-01-26T13:36:29.742Z,26560
2017-01-26T13:37:29.731Z,30016
2017-01-26T13:38:29.734Z,33024
2017-01-26T13:39:29.735Z,32448
2017-01-26T13:40:29.695Z,29536
2017-01-26T13:41:29.692Z,27776
2017-01-26T13:42:29.692Z,28064
2017-01-26T13:43:29.685Z,29024
2017-01-26T13:44:29.671Z,30272
2017-01-26T13:45:29.658Z,31328
2017-01-26T13:46:29.653Z,34304